createdAt,value
2023-02-23T00:01:58.999Z,101258.50
2023-02-23T00:04:01.285Z,101261.53
2023-02-23T00:06:04.297Z,101256.59
2023-02-23T00:08:06.809Z,101256.25
2023-02-23T00:10:12.079Z,101260.69
2023-02-23T00:12:14.230Z,101268.44
2023-02-23T00:14:16.451Z,101272.97
2023-02-23T00:16:21.859Z,101274.50
2023-02-23T00:18:24.146Z,101268.41
2023-02-23T00:20:28.274Z,101277.66
2023-02-23T00:22:30.361Z,101275.91
2023-02-23T00:24:32.528Z,101277.84
2023-02-23T00:26:36.922Z,101282.84
2023-02-23T00:28:39.180Z,101278.53
2023-02-23T00:30:41.474Z,101282.16
2023-02-23T00:32:43.561Z,101273.91
2023-02-23T00:34:49.617Z,101278.88
2023-02-23T00:36:55.674Z,101280.50
2023-02-23T00:39:00.775Z,101270.41
2023-02-23T00:41:07.327Z,101267.72
2023-02-23T00:43:09.525Z,101268.59
2023-02-23T00:45:13.605Z,101272.00
2023-02-23T00:47:15.870Z,101272.25
2023-02-23T00:49:20.310Z,101276.53
2023-02-23T00:51:23.624Z,101270.56
2023-02-23T00:53:27.458Z,101274.09
2023-02-23T00:55:29.587Z,101273.91
2023-02-23T00:57:31.821Z,101277.50
2023-02-23T00:59:33.909Z,101282.16
2023-02-23T01:01:37.794Z,101268.59
2023-02-23T01:03:42.053Z,101273.91
2023-02-23T01:05:44.391Z,101275.38
2023-02-23T01:07:46.764Z,101279.63
2023-02-23T01:09:49.034Z,101278.63
2023-02-23T01:11:51.164Z,101274.06
2023-02-23T01:13:55.009Z,101278.19
2023-02-23T01:15:57.247Z,101278.38
2023-02-23T01:17:59.632Z,101276.53
2023-02-23T01:20:01.727Z,101276.44
2023-02-23T01:22:03.795Z,101279.25
2023-02-23T01:24:06.214Z,101281.81
2023-02-23T01:26:16.748Z,101288.69
2023-02-23T01:28:18.856Z,101278.44
2023-02-23T01:30:21.948Z,101282.53
2023-02-23T01:32:24.163Z,101286.56
2023-02-23T01:34:26.508Z,101288.59
2023-02-23T01:36:30.197Z,101284.97
2023-02-23T01:38:32.228Z,101287.31
2023-02-23T01:40:37.362Z,101296.41
2023-02-23T01:42:42.178Z,101286.25
2023-02-23T01:44:45.068Z,101305.97
2023-02-23T01:46:49.528Z,101294.97
2023-02-23T01:48:56.525Z,101303.41
2023-02-23T01:51:07.013Z,101296.59
2023-02-23T01:53:09.556Z,101292.22
2023-02-23T01:55:13.830Z,101301.19
2023-02-23T01:57:17.245Z,101296.31
2023-02-23T01:59:19.462Z,101302.47
2023-02-23T02:01:23.038Z,101300.78
2023-02-23T02:03:31.531Z,101301.66
2023-02-23T02:05:33.924Z,101300.78
2023-02-23T02:07:37.378Z,101301.56
2023-02-23T02:09:41.215Z,101298.94
2023-02-23T02:11:46.623Z,101298.06
2023-02-23T02:13:48.919Z,101300.88
2023-02-23T02:15:57.294Z,101299.81
2023-02-23T02:18:03.569Z,101298.88
2023-02-23T02:20:14.896Z,101296.53
2023-02-23T02:22:21.708Z,101305.63
2023-02-23T02:24:31.250Z,101299.81
2023-02-23T02:26:46.378Z,101299.03
2023-02-23T02:28:52.861Z,101309.19
2023-02-23T02:31:08.134Z,101306.38
2023-02-23T02:33:12.106Z,101308.38
2023-02-23T02:35:15.069Z,101304.94
2023-02-23T02:37:25.609Z,101307.59
2023-02-23T02:39:36.927Z,101305.75
2023-02-23T02:41:45.580Z,101297.25
2023-02-23T02:43:59.160Z,101304.28
2023-02-23T02:46:12.217Z,101298.16
2023-02-23T02:48:17.005Z,101293.13
2023-02-23T02:50:31.682Z,101293.91
2023-02-23T02:52:41.284Z,101284.34
2023-02-23T02:54:49.883Z,101294.63
2023-02-23T02:56:57.821Z,101295.66
2023-02-23T02:59:01.594Z,101287.03
2023-02-23T03:01:11.398Z,101297.41
2023-02-23T03:03:27.327Z,101287.09
2023-02-23T03:05:41.125Z,101288.19
2023-02-23T03:07:55.239Z,101288.84
2023-02-23T03:10:07.151Z,101288.25
2023-02-23T03:12:25.703Z,101295.94
2023-02-23T03:14:34.130Z,101291.53
2023-02-23T03:16:44.800Z,101294.69
2023-02-23T03:18:56.022Z,101294.69
2023-02-23T03:21:08.909Z,101293.75
2023-02-23T03:23:18.412Z,101297.13
2023-02-23T03:25:36.264Z,101298.06
2023-02-23T03:27:52.386Z,101299.81
2023-02-23T03:30:04.824Z,101304.84
2023-02-23T03:32:18.481Z,101295.25
2023-02-23T03:34:28.032Z,101296.19
2023-02-23T03:36:39.165Z,101293.41
2023-02-23T03:38:51.155Z,101297.81
2023-02-23T03:40:59.066Z,101299.56
2023-02-23T03:43:07.053Z,101306.50
2023-02-23T03:45:18.003Z,101307.44
2023-02-23T03:47:28.465Z,101305.69
2023-02-23T03:49:37.529Z,101311.88
2023-02-23T03:51:45.603Z,101310.75
2023-02-23T03:54:03.467Z,101318.63
2023-02-23T03:56:12.145Z,101321.97
2023-02-23T03:58:21.778Z,101320.28
2023-02-23T04:00:33.894Z,101317.72
2023-02-23T04:02:40.669Z,101316.94
2023-02-23T04:04:48.216Z,101322.91
2023-02-23T04:06:54.301Z,101320.22
2023-02-23T04:09:03.043Z,101330.59
2023-02-23T04:11:17.776Z,101324.63
2023-02-23T04:13:25.159Z,101326.34
2023-02-23T04:15:33.248Z,101328.94
2023-02-23T04:17:35.565Z,101329.72
2023-02-23T04:19:37.545Z,101330.34
2023-02-23T04:21:39.524Z,101326.97
2023-02-23T04:23:42.911Z,101329.53
2023-02-23T04:25:44.967Z,101327.66
2023-02-23T04:27:46.864Z,101325.41
2023-02-23T04:29:48.877Z,101325.97
2023-02-23T04:31:50.878Z,101327.00
2023-02-23T04:33:53.036Z,101333.84
2023-02-23T04:35:55.367Z,101325.97
2023-02-23T04:37:58.423Z,101328.53
2023-02-23T04:40:00.322Z,101333.84
2023-02-23T04:42:02.533Z,101335.53
2023-02-23T04:44:05.116Z,101337.22
2023-02-23T04:46:07.630Z,101340.78
2023-02-23T04:48:09.708Z,101343.41
2023-02-23T04:50:12.960Z,101341.63
2023-02-23T04:52:14.963Z,101334.03
2023-02-23T04:54:17.162Z,101337.16
2023-02-23T04:56:19.470Z,101338.91
2023-02-23T04:58:21.419Z,101339.94
2023-02-23T05:00:23.549Z,101338.97
2023-02-23T05:02:25.766Z,101344.34
2023-02-23T05:04:27.837Z,101338.97
2023-02-23T05:06:31.317Z,101339.09
2023-02-23T05:08:33.334Z,101341.53
2023-02-23T05:10:35.842Z,101348.28
2023-02-23T05:12:38.062Z,101350.03
2023-02-23T05:14:40.085Z,101344.63
2023-02-23T05:16:42.101Z,101355.88
2023-02-23T05:18:44.207Z,101349.47
2023-02-23T05:20:46.214Z,101358.41
2023-02-23T05:22:48.238Z,101360.66
2023-02-23T05:24:50.522Z,101371.66
2023-02-23T05:26:52.509Z,101372.47
2023-02-23T05:28:57.152Z,101365.00
2023-02-23T05:30:59.500Z,101373.53
2023-02-23T05:33:01.833Z,101370.91
2023-02-23T05:35:04.219Z,101370.41
2023-02-23T05:37:06.663Z,101371.91
2023-02-23T05:39:08.624Z,101369.31
2023-02-23T05:41:13.290Z,101363.56
2023-02-23T05:43:15.281Z,101362.50
2023-02-23T05:45:17.665Z,101369.22
2023-02-23T05:47:19.692Z,101370.19
2023-02-23T05:49:21.732Z,101369.53
2023-02-23T05:51:23.781Z,101362.75
2023-02-23T05:53:25.757Z,101368.00
2023-02-23T05:55:27.751Z,101371.63
2023-02-23T05:57:29.651Z,101383.53
2023-02-23T05:59:32.021Z,101383.53
2023-02-23T06:01:34.106Z,101384.25
2023-02-23T06:03:36.153Z,101373.13
2023-02-23T06:05:38.104Z,101390.53
2023-02-23T06:07:40.695Z,101393.19
2023-02-23T06:09:44.492Z,101402.63
2023-02-23T06:11:46.776Z,101411.88
2023-02-23T06:13:48.855Z,101413.88
2023-02-23T06:15:50.844Z,101416.44
2023-02-23T06:17:53.768Z,101414.78
2023-02-23T06:19:55.748Z,101419.28
2023-02-23T06:21:58.127Z,101425.16
2023-02-23T06:24:01.135Z,101426.88
2023-02-23T06:26:03.045Z,101426.03
2023-02-23T06:28:05.258Z,101425.28
2023-02-23T06:30:08.050Z,101431.28
2023-02-23T06:32:10.371Z,101428.81
2023-02-23T06:34:12.490Z,101445.59
2023-02-23T06:36:14.615Z,101448.97
2023-02-23T06:38:16.704Z,101452.22
2023-02-23T06:40:18.809Z,101446.47
2023-02-23T06:42:20.765Z,101440.56
2023-02-23T06:44:23.495Z,101448.31
2023-02-23T06:46:25.595Z,101451.69
2023-02-23T06:48:27.793Z,101457.81
2023-02-23T06:50:29.914Z,101470.97
2023-02-23T06:52:31.824Z,101473.22
2023-02-23T06:54:34.414Z,101473.88
2023-02-23T06:56:36.403Z,101470.97
2023-02-23T06:58:38.821Z,101479.94
2023-02-23T07:00:43.192Z,101474.91
2023-02-23T07:02:45.202Z,101481.06
2023-02-23T07:04:47.380Z,101480.75
2023-02-23T07:06:49.482Z,101475.56
2023-02-23T07:08:51.564Z,101477.56
2023-02-23T07:10:53.518Z,101481.88
2023-02-23T07:12:55.528Z,101473.22
2023-02-23T07:14:57.490Z,101479.31
2023-02-23T07:16:59.824Z,101482.09
2023-02-23T07:19:01.796Z,101477.78
2023-02-23T07:21:03.873Z,101478.72
2023-02-23T07:23:05.949Z,101488.16
2023-02-23T07:25:09.509Z,101487.56
2023-02-23T07:27:11.558Z,101488.38
2023-02-23T07:29:13.899Z,101493.38
2023-02-23T07:31:15.969Z,101500.88
2023-02-23T07:33:18.087Z,101514.66
2023-02-23T07:35:20.490Z,101512.97
2023-02-23T07:37:22.547Z,101513.84
2023-02-23T07:39:25.760Z,101522.44
2023-02-23T07:41:27.851Z,101525.06
2023-02-23T07:43:30.153Z,101528.69
2023-02-23T07:45:32.510Z,101532.81
2023-02-23T07:47:34.929Z,101537.09
2023-02-23T07:49:36.928Z,101541.03
2023-02-23T07:51:40.166Z,101539.44
2023-02-23T07:53:43.284Z,101542.81
2023-02-23T07:55:45.894Z,101545.59
2023-02-23T07:57:48.100Z,101557.22
2023-02-23T07:59:50.401Z,101557.63
2023-02-23T08:01:52.782Z,101542.31
2023-02-23T08:03:54.864Z,101548.38
2023-02-23T08:05:57.243Z,101548.97
2023-02-23T08:08:00.395Z,101552.00
2023-02-23T08:10:04.048Z,101564.91
2023-02-23T08:12:06.815Z,101557.25
2023-02-23T08:14:10.799Z,101558.13
2023-02-23T08:16:12.876Z,101569.16
2023-02-23T08:18:15.061Z,101568.34
2023-02-23T08:20:17.718Z,101580.88
2023-02-23T08:22:20.206Z,101573.53
2023-02-23T08:24:22.236Z,101576.09
2023-02-23T08:26:25.749Z,101581.81
2023-02-23T08:28:29.027Z,101576.00
2023-02-23T08:30:32.057Z,101583.69
2023-02-23T08:32:36.128Z,101571.03
2023-02-23T08:34:40.661Z,101560.00
2023-02-23T08:36:45.698Z,101576.03
2023-02-23T08:38:49.082Z,101574.41
2023-02-23T08:40:51.408Z,101575.19
2023-02-23T08:42:53.593Z,101576.00
2023-02-23T08:44:55.806Z,101580.47
2023-02-23T08:46:58.584Z,101574.72
2023-02-23T08:49:00.942Z,101577.53
2023-02-23T08:51:03.396Z,101574.69
2023-02-23T08:53:05.701Z,101581.25
2023-02-23T08:55:08.394Z,101574.41
2023-02-23T08:57:12.516Z,101577.03
2023-02-23T08:59:15.494Z,101570.63
2023-02-23T09:01:20.442Z,101576.47
2023-02-23T09:03:23.568Z,101581.78
2023-02-23T09:05:25.728Z,101574.97
2023-02-23T09:07:27.992Z,101588.16
2023-02-23T09:09:30.413Z,101581.28
2023-02-23T09:11:32.821Z,101582.25
2023-02-23T09:13:35.430Z,101580.00
2023-02-23T09:15:39.985Z,101583.50
2023-02-23T09:17:45.174Z,101598.25
2023-02-23T09:19:47.344Z,101602.50
2023-02-23T09:21:49.730Z,101621.09
2023-02-23T09:23:54.857Z,101615.03
2023-02-23T09:25:57.088Z,101615.16
2023-02-23T09:28:00.157Z,101619.00
2023-02-23T09:30:02.674Z,101615.63
2023-02-23T09:32:05.194Z,101614.03
2023-02-23T09:34:09.565Z,101617.53
2023-02-23T09:36:16.632Z,101621.78
2023-02-23T09:38:18.752Z,101621.91
2023-02-23T09:40:26.788Z,101626.09
2023-02-23T09:42:35.191Z,101628.72
2023-02-23T09:44:39.332Z,101629.50
2023-02-23T09:46:49.894Z,101635.31
2023-02-23T09:48:53.227Z,101637.59
2023-02-23T09:50:57.684Z,101631.38
2023-02-23T09:53:05.087Z,101633.88
2023-02-23T09:55:10.540Z,101631.91
2023-02-23T09:57:18.136Z,101637.00
2023-02-23T09:59:22.695Z,101639.00
2023-02-23T10:01:31.178Z,101644.91
2023-02-23T10:03:38.545Z,101638.84
2023-02-23T10:05:46.382Z,101642.81
2023-02-23T10:07:56.264Z,101636.03
2023-02-23T10:10:04.648Z,101641.41
2023-02-23T10:12:07.556Z,101640.53
2023-02-23T10:14:16.424Z,101649.34
2023-02-23T10:16:24.837Z,101649.25
2023-02-23T10:18:45.735Z,101664.09
2023-02-23T10:20:54.849Z,101668.78
2023-02-23T10:23:03.970Z,101663.22
2023-02-23T10:25:13.580Z,101665.78
2023-02-23T10:27:18.526Z,101663.22
2023-02-23T10:29:28.599Z,101663.50
2023-02-23T10:31:40.368Z,101662.75
2023-02-23T10:33:42.777Z,101666.00
2023-02-23T10:35:45.826Z,101674.06
2023-02-23T10:37:49.410Z,101677.00
2023-02-23T10:39:52.925Z,101673.09
2023-02-23T10:41:57.552Z,101671.41
2023-02-23T10:44:10.983Z,101664.16
2023-02-23T10:46:22.602Z,101660.44
2023-02-23T10:48:30.002Z,101664.72
2023-02-23T10:50:36.284Z,101673.50
2023-02-23T10:52:45.903Z,101674.53
2023-02-23T10:54:50.065Z,101671.75
2023-02-23T10:56:53.567Z,101670.41
2023-02-23T10:58:58.672Z,101674.59
2023-02-23T11:01:06.560Z,101661.91
2023-02-23T11:03:19.630Z,101670.81
2023-02-23T11:05:28.812Z,101680.69
2023-02-23T11:07:33.274Z,101694.63
2023-02-23T11:09:46.420Z,101704.09
2023-02-23T11:11:55.141Z,101695.50
2023-02-23T11:13:58.182Z,101681.84
2023-02-23T11:16:04.782Z,101682.66
2023-02-23T11:18:07.738Z,101681.19
2023-02-23T11:20:16.332Z,101690.41
2023-02-23T11:22:23.470Z,101692.22
2023-02-23T11:24:31.416Z,101698.44
2023-02-23T11:26:39.405Z,101705.53
2023-02-23T11:28:43.666Z,101696.16
2023-02-23T11:30:45.869Z,101695.44
2023-02-23T11:32:53.567Z,101709.59
2023-02-23T11:35:06.621Z,101699.59
2023-02-23T11:37:20.948Z,101714.50
2023-02-23T11:39:23.813Z,101709.03
2023-02-23T11:41:26.061Z,101712.31
2023-02-23T11:43:28.590Z,101703.69
2023-02-23T11:45:33.832Z,101708.09
2023-02-23T11:47:41.671Z,101701.34
2023-02-23T11:49:46.895Z,101697.91
2023-02-23T11:51:50.929Z,101690.09
2023-02-23T11:53:53.288Z,101686.19
2023-02-23T11:55:59.476Z,101690.03
2023-02-23T11:58:08.595Z,101694.81
2023-02-23T12:00:14.672Z,101687.94
2023-02-23T12:02:23.351Z,101688.34
2023-02-23T12:04:26.314Z,101698.38
2023-02-23T12:06:34.966Z,101694.19
2023-02-23T12:08:44.669Z,101696.44
2023-02-23T12:10:54.778Z,101693.03
2023-02-23T12:13:04.899Z,101700.66
2023-02-23T12:15:20.228Z,101708.41
2023-02-23T12:17:27.530Z,101708.41
2023-02-23T12:19:37.072Z,101700.31
2023-02-23T12:21:45.570Z,101698.44
2023-02-23T12:23:52.526Z,101709.25
2023-02-23T12:26:00.618Z,101700.53
2023-02-23T12:28:19.154Z,101696.88
2023-02-23T12:30:28.275Z,101702.59
2023-02-23T12:32:37.018Z,101699.44
2023-02-23T12:34:44.747Z,101701.84
2023-02-23T12:36:56.670Z,101703.28
2023-02-23T12:39:05.188Z,101707.91
2023-02-23T12:41:12.953Z,101698.28
2023-02-23T12:43:23.492Z,101696.63
2023-02-23T12:45:34.726Z,101690.38
2023-02-23T12:47:44.922Z,101695.09
2023-02-23T12:49:55.469Z,101695.88
2023-02-23T12:52:08.922Z,101707.16
2023-02-23T12:54:15.971Z,101703.19
2023-02-23T12:56:22.613Z,101697.66
2023-02-23T12:58:35.179Z,101695.28
2023-02-23T13:00:40.911Z,101696.44
2023-02-23T13:02:53.488Z,101693.97
2023-02-23T13:05:02.844Z,101691.78
2023-02-23T13:07:10.975Z,101695.38
2023-02-23T13:09:17.695Z,101703.13
2023-02-23T13:11:27.813Z,101701.38
2023-02-23T13:13:41.010Z,101708.25
2023-02-23T13:15:49.486Z,101706.66
2023-02-23T13:17:55.226Z,101701.72
2023-02-23T13:20:01.979Z,101710.13
2023-02-23T13:22:22.670Z,101702.94
2023-02-23T13:24:30.472Z,101698.91
2023-02-23T13:26:36.187Z,101700.50
2023-02-23T13:28:41.962Z,101694.69
2023-02-23T13:30:47.756Z,101697.91
2023-02-23T13:32:50.466Z,101699.88
2023-02-23T13:34:56.934Z,101688.69
2023-02-23T13:37:03.706Z,101692.66
2023-02-23T13:39:18.541Z,101687.13
2023-02-23T13:41:27.539Z,101690.69
2023-02-23T13:43:34.300Z,101679.31
2023-02-23T13:45:40.966Z,101689.94
2023-02-23T13:47:50.492Z,101682.44
2023-02-23T13:49:57.288Z,101692.66
2023-02-23T13:52:06.278Z,101691.28
2023-02-23T13:54:15.191Z,101699.69
2023-02-23T13:56:20.178Z,101698.13
2023-02-23T13:58:29.118Z,101702.41
2023-02-23T14:00:33.849Z,101703.28
2023-02-23T14:02:41.237Z,101691.44
2023-02-23T14:04:43.716Z,101701.78
2023-02-23T14:06:53.980Z,101700.06
2023-02-23T14:09:02.367Z,101697.63
2023-02-23T14:11:06.224Z,101706.03
2023-02-23T14:13:09.209Z,101706.50
2023-02-23T14:15:17.698Z,101705.06
2023-02-23T14:17:22.295Z,101711.91
2023-02-23T14:19:31.321Z,101709.41
2023-02-23T14:21:45.332Z,101710.06
2023-02-23T14:23:52.428Z,101712.75
2023-02-23T14:26:01.073Z,101714.88
2023-02-23T14:28:22.442Z,101718.97
2023-02-23T14:30:28.752Z,101735.16
2023-02-23T14:32:32.739Z,101726.56
2023-02-23T14:34:44.279Z,101736.03
2023-02-23T14:36:46.927Z,101727.44
2023-02-23T14:38:55.225Z,101734.66
2023-02-23T14:40:58.015Z,101739.13
2023-02-23T14:43:03.419Z,101730.38
2023-02-23T14:45:18.524Z,101731.25
2023-02-23T14:47:24.119Z,101733.69
2023-02-23T14:49:28.563Z,101739.44
2023-02-23T14:51:37.052Z,101731.25
2023-02-23T14:53:40.653Z,101725.66
2023-02-23T14:55:44.874Z,101733.88
2023-02-23T14:57:47.498Z,101739.09
2023-02-23T14:59:54.657Z,101727.16
2023-02-23T15:02:01.261Z,101734.50
2023-02-23T15:04:08.017Z,101744.63
2023-02-23T15:06:11.001Z,101743.00
2023-02-23T15:08:18.122Z,101736.25
2023-02-23T15:10:28.953Z,101741.81
2023-02-23T15:12:35.475Z,101745.97
2023-02-23T15:14:39.347Z,101744.69
2023-02-23T15:16:45.252Z,101747.47
2023-02-23T15:18:48.570Z,101753.28
2023-02-23T15:20:52.012Z,101755.13
2023-02-23T15:22:57.713Z,101758.41
2023-02-23T15:25:02.757Z,101751.75
2023-02-23T15:27:05.262Z,101752.72
2023-02-23T15:29:15.464Z,101757.75
2023-02-23T15:31:19.900Z,101766.31
2023-02-23T15:33:28.951Z,101764.59
2023-02-23T15:35:38.888Z,101764.81
2023-02-23T15:37:45.760Z,101771.75
2023-02-23T15:39:54.478Z,101763.41
2023-02-23T15:41:56.796Z,101770.31
2023-02-23T15:44:04.028Z,101777.09
2023-02-23T15:46:06.839Z,101776.94
2023-02-23T15:48:18.579Z,101781.97
2023-02-23T15:50:36.472Z,101775.00
2023-02-23T15:52:45.338Z,101773.69
2023-02-23T15:54:48.671Z,101767.72
2023-02-23T15:56:57.586Z,101773.53
2023-02-23T15:59:04.754Z,101771.13
2023-02-23T16:01:13.447Z,101773.44
2023-02-23T16:03:21.910Z,101771.31
2023-02-23T16:05:25.893Z,101774.63
2023-02-23T16:07:38.560Z,101769.22
2023-02-23T16:09:50.765Z,101775.13
2023-02-23T16:12:01.868Z,101779.63
2023-02-23T16:14:05.809Z,101771.03
2023-02-23T16:16:19.553Z,101776.88
2023-02-23T16:18:35.306Z,101773.31
2023-02-23T16:20:42.663Z,101777.16
2023-02-23T16:22:46.636Z,101777.88
2023-02-23T16:24:55.917Z,101773.50
2023-02-23T16:27:01.085Z,101779.56
2023-02-23T16:29:05.132Z,101772.69
2023-02-23T16:31:09.525Z,101764.09
2023-02-23T16:33:19.177Z,101758.19
2023-02-23T16:35:21.780Z,101758.06
2023-02-23T16:37:26.539Z,101759.78
2023-02-23T16:39:30.713Z,101760.69
2023-02-23T16:41:34.838Z,101765.28
2023-02-23T16:43:37.365Z,101767.38
2023-02-23T16:45:41.889Z,101763.28
2023-02-23T16:47:48.204Z,101767.09
2023-02-23T16:49:51.713Z,101771.88
2023-02-23T16:51:53.963Z,101764.09
2023-02-23T16:53:56.260Z,101769.34
2023-02-23T16:56:01.336Z,101771.81
2023-02-23T16:58:08.129Z,101773.06
2023-02-23T17:00:15.748Z,101779.72
2023-02-23T17:02:19.292Z,101789.75
2023-02-23T17:04:22.048Z,101787.84
2023-02-23T17:06:24.243Z,101778.00
2023-02-23T17:08:27.295Z,101786.31
2023-02-23T17:10:35.023Z,101783.47
2023-02-23T17:12:37.314Z,101782.41
2023-02-23T17:14:39.689Z,101785.75
2023-02-23T17:16:41.959Z,101782.97
2023-02-23T17:18:45.144Z,101788.72
2023-02-23T17:20:47.321Z,101782.38
2023-02-23T17:22:50.294Z,101779.94
2023-02-23T17:24:52.798Z,101795.97
2023-02-23T17:26:55.741Z,101790.88
2023-02-23T17:28:58.068Z,101788.06
2023-02-23T17:31:01.177Z,101789.22
2023-02-23T17:33:05.075Z,101789.50
2023-02-23T17:35:09.818Z,101793.13
2023-02-23T17:37:12.165Z,101788.69
2023-02-23T17:39:17.009Z,101787.88
2023-02-23T17:41:20.481Z,101795.44
2023-02-23T17:43:24.138Z,101798.66
2023-02-23T17:45:28.481Z,101801.91
2023-02-23T17:47:32.627Z,101803.59
2023-02-23T17:49:34.794Z,101805.44
2023-02-23T17:51:37.492Z,101806.81
2023-02-23T17:53:40.900Z,101807.63
2023-02-23T17:55:43.418Z,101804.63
2023-02-23T17:57:46.553Z,101805.25
2023-02-23T17:59:49.060Z,101807.81
2023-02-23T18:01:51.804Z,101806.19
2023-02-23T18:03:56.701Z,101809.69
2023-02-23T18:06:03.920Z,101812.13
2023-02-23T18:08:06.200Z,101804.50
2023-02-23T18:10:09.460Z,101806.81
2023-02-23T18:12:15.382Z,101814.63
2023-02-23T18:14:19.009Z,101815.34
2023-02-23T18:16:23.086Z,101823.59
2023-02-23T18:18:25.413Z,101819.53
2023-02-23T18:20:29.080Z,101824.53
2023-02-23T18:22:31.300Z,101821.59
2023-02-23T18:24:34.221Z,101830.06
2023-02-23T18:26:36.691Z,101832.81
2023-02-23T18:28:41.281Z,101831.13
2023-02-23T18:30:45.041Z,101832.38
2023-02-23T18:32:47.709Z,101842.38
2023-02-23T18:34:50.700Z,101835.75
2023-02-23T18:36:53.231Z,101830.53
2023-02-23T18:38:58.004Z,101835.81
2023-02-23T18:41:00.195Z,101839.41
2023-02-23T18:43:03.075Z,101843.81
2023-02-23T18:45:08.423Z,101846.38
2023-02-23T18:47:11.086Z,101854.94
2023-02-23T18:49:16.500Z,101851.69
2023-02-23T18:51:20.423Z,101844.22
2023-02-23T18:53:23.045Z,101855.13
2023-02-23T18:55:25.405Z,101848.53
2023-02-23T18:57:27.774Z,101844.41
2023-02-23T18:59:29.975Z,101846.84
2023-02-23T19:01:33.692Z,101848.53
2023-02-23T19:03:36.784Z,101853.38
2023-02-23T19:05:46.122Z,101856.19
2023-02-23T19:07:48.205Z,101848.88
2023-02-23T19:09:51.736Z,101857.78
2023-02-23T19:11:54.157Z,101851.03
2023-02-23T19:13:59.122Z,101840.50
2023-02-23T19:16:05.518Z,101838.16
2023-02-23T19:18:07.863Z,101840.63
2023-02-23T19:20:13.376Z,101839.09
2023-02-23T19:22:15.573Z,101839.09
2023-02-23T19:24:17.804Z,101842.47
2023-02-23T19:26:21.638Z,101840.50
2023-02-23T19:28:24.113Z,101843.88
2023-02-23T19:30:26.295Z,101836.28
2023-02-23T19:32:28.740Z,101834.13
2023-02-23T19:34:31.666Z,101837.06
2023-02-23T19:36:34.683Z,101835.47
2023-02-23T19:38:37.127Z,101833.69
2023-02-23T19:40:42.996Z,101828.72
2023-02-23T19:42:46.429Z,101834.56
2023-02-23T19:44:48.870Z,101825.06
2023-02-23T19:46:51.622Z,101831.06
2023-02-23T19:48:54.523Z,101824.19
2023-02-23T19:50:56.697Z,101826.38
2023-02-23T19:52:59.194Z,101822.13
2023-02-23T19:55:02.502Z,101822.06
2023-02-23T19:57:05.017Z,101817.59
2023-02-23T19:59:08.231Z,101811.28
2023-02-23T20:01:12.125Z,101818.19
2023-02-23T20:03:14.507Z,101815.84
2023-02-23T20:05:17.700Z,101821.13
2023-02-23T20:07:20.523Z,101816.03
2023-02-23T20:09:22.858Z,101817.00
2023-02-23T20:11:25.158Z,101806.09
2023-02-23T20:13:27.717Z,101808.50
2023-02-23T20:15:30.024Z,101813.09
2023-02-23T20:17:32.525Z,101809.66
2023-02-23T20:19:35.361Z,101813.31
2023-02-23T20:21:38.151Z,101814.13
2023-02-23T20:23:42.372Z,101813.09
2023-02-23T20:25:44.770Z,101816.53
2023-02-23T20:27:47.896Z,101815.66
2023-02-23T20:29:51.095Z,101807.03
2023-02-23T20:31:53.870Z,101822.41
2023-02-23T20:33:58.967Z,101814.66
2023-02-23T20:36:02.247Z,101806.97
2023-02-23T20:38:06.441Z,101806.09
2023-02-23T20:40:18.012Z,101808.66
2023-02-23T20:42:21.607Z,101814.22
2023-02-23T20:44:25.777Z,101819.22
2023-02-23T20:46:31.194Z,101813.66
2023-02-23T20:48:35.725Z,101818.94
2023-02-23T20:50:38.255Z,101819.59
2023-02-23T20:52:42.214Z,101818.50
2023-02-23T20:54:44.460Z,101819.97
2023-02-23T20:56:47.060Z,101812.16
2023-02-23T20:58:50.046Z,101812.84
2023-02-23T21:00:55.053Z,101804.22
2023-02-23T21:02:57.234Z,101810.03
2023-02-23T21:04:59.453Z,101815.84
2023-02-23T21:07:01.731Z,101813.22
2023-02-23T21:09:04.818Z,101814.09
2023-02-23T21:11:08.097Z,101800.19
2023-02-23T21:13:11.253Z,101804.22
2023-02-23T21:15:15.086Z,101799.00
2023-02-23T21:17:17.382Z,101798.06
2023-02-23T21:19:20.355Z,101798.28
2023-02-23T21:21:22.891Z,101801.66
2023-02-23T21:23:26.293Z,101796.38
2023-02-23T21:25:29.315Z,101805.81
2023-02-23T21:27:32.473Z,101804.00
2023-02-23T21:29:34.884Z,101813.00
2023-02-23T21:31:37.438Z,101799.53
2023-02-23T21:33:42.654Z,101808.69
2023-02-23T21:35:45.196Z,101813.50
2023-02-23T21:37:48.023Z,101809.34
2023-02-23T21:39:50.851Z,101814.41
2023-02-23T21:41:53.336Z,101815.09
2023-02-23T21:43:56.278Z,101806.25
2023-02-23T21:45:58.914Z,101808.66
2023-02-23T21:48:01.245Z,101800.81
2023-02-23T21:50:04.544Z,101811.72
2023-02-23T21:52:07.525Z,101806.59
2023-02-23T21:54:10.278Z,101800.50
2023-02-23T21:56:15.345Z,101793.72
2023-02-23T21:58:17.755Z,101791.06
2023-02-23T22:00:22.056Z,101794.50
2023-02-23T22:02:27.607Z,101791.06
2023-02-23T22:04:29.847Z,101792.81
2023-02-23T22:06:39.116Z,101790.19
2023-02-23T22:08:43.282Z,101790.78
2023-02-23T22:10:46.589Z,101783.91
2023-02-23T22:12:53.800Z,101781.41
2023-02-23T22:14:56.823Z,101784.59
2023-02-23T22:16:59.496Z,101781.97
2023-02-23T22:19:04.628Z,101774.28
2023-02-23T22:21:08.284Z,101781.03
2023-02-23T22:23:10.554Z,101780.06
2023-02-23T22:25:12.615Z,101783.44
2023-02-23T22:27:16.285Z,101783.38
2023-02-23T22:29:18.520Z,101779.69
2023-02-23T22:31:21.401Z,101783.13
2023-02-23T22:33:24.277Z,101789.13
2023-02-23T22:35:26.423Z,101787.34
2023-02-23T22:37:30.037Z,101787.13
2023-02-23T22:39:33.657Z,101781.22
2023-02-23T22:41:42.554Z,101780.34
2023-02-23T22:43:46.538Z,101779.47
2023-02-23T22:45:54.192Z,101774.16
2023-02-23T22:48:01.660Z,101772.41
2023-02-23T22:50:06.286Z,101778.50
2023-02-23T22:52:08.220Z,101776.97
2023-02-23T22:54:11.627Z,101772.78
2023-02-23T22:56:14.012Z,101765.38
2023-02-23T22:58:23.357Z,101756.63
2023-02-23T23:00:27.241Z,101764.31
2023-02-23T23:02:32.486Z,101758.25
2023-02-23T23:04:34.778Z,101760.88
2023-02-23T23:06:38.851Z,101759.03
2023-02-23T23:08:43.335Z,101769.28
2023-02-23T23:10:45.166Z,101767.59
2023-02-23T23:12:47.170Z,101759.25
2023-02-23T23:14:49.116Z,101758.31
2023-02-23T23:16:51.136Z,101765.13
2023-02-23T23:18:55.686Z,101761.59
2023-02-23T23:21:02.651Z,101756.34
2023-02-23T23:23:07.204Z,101759.69
2023-02-23T23:25:15.043Z,101755.16
2023-02-23T23:27:19.964Z,101748.28
2023-02-23T23:29:23.340Z,101746.50
2023-02-23T23:31:29.438Z,101737.72
2023-02-23T23:33:31.818Z,101735.94
2023-02-23T23:35:34.871Z,101729.00
2023-02-23T23:37:39.867Z,101723.88
2023-02-23T23:39:41.672Z,101725.44
2023-02-23T23:41:48.122Z,101720.44
2023-02-23T23:43:54.707Z,101718.69
2023-02-23T23:45:57.748Z,101722.06
2023-02-23T23:47:59.759Z,101705.69